sim
Sign-in with your pilot id or email,
or register
Callsign
Passwort

Schedule Details

Flight Number: OEO4682
Departure: Hannover Langenhagen Airport (EDDV) at 12:35
Arrival: Paris Charles de Gaulle Airport (LFPG) at 14:05

Weather Information
Getting current METAR information for EDDV 222320Z 32001KT CAVOK 18/15 Q1022
Getting current METAR information for LFPG 222300Z 04006KT CAVOK 22/13 Q1021 NOSIG

Schedule Frequency

Route Map